createdAt,value
2018-11-22T00:02:17.352Z,33.63
2018-11-22T00:08:20.931Z,32.47
2018-11-22T00:14:24.379Z,31.37
2018-11-22T00:20:27.922Z,32.87
2018-11-22T00:26:31.408Z,32.13
2018-11-22T00:32:36.501Z,32.00
2018-11-22T00:38:40.003Z,29.97
2018-11-22T00:44:43.632Z,31.93
2018-11-22T00:50:47.122Z,29.27
2018-11-22T00:56:50.574Z,30.63
2018-11-22T01:02:54.056Z,30.73
2018-11-22T01:08:57.634Z,30.87
2018-11-22T01:15:01.152Z,30.73
2018-11-22T01:21:04.636Z,31.03
2018-11-22T01:27:08.122Z,31.80
2018-11-22T01:33:11.614Z,31.50
2018-11-22T01:39:15.084Z,29.97
2018-11-22T01:45:20.012Z,30.63
2018-11-22T01:51:23.764Z,32.23
2018-11-22T01:57:27.246Z,31.10
2018-11-22T02:03:30.724Z,31.07
2018-11-22T02:09:34.250Z,31.20
2018-11-22T02:15:37.735Z,31.47
2018-11-22T02:21:41.279Z,30.23
2018-11-22T02:27:44.966Z,31.27
2018-11-22T02:33:48.435Z,29.87
2018-11-22T02:39:51.916Z,30.83
2018-11-22T02:45:55.531Z,32.00
2018-11-22T02:51:59.019Z,32.27
2018-11-22T02:58:02.489Z,31.87
2018-11-22T03:04:06.177Z,31.70
2018-11-22T03:10:09.780Z,30.67
2018-11-22T03:16:13.287Z,31.47
2018-11-22T03:22:16.731Z,31.53
2018-11-22T03:28:20.201Z,31.47
2018-11-22T03:34:23.679Z,32.13
2018-11-22T03:40:27.641Z,31.83
2018-11-22T03:46:31.221Z,30.97
2018-11-22T03:52:34.686Z,30.87
2018-11-22T03:58:38.147Z,32.53
2018-11-22T04:04:41.617Z,30.40
2018-11-22T04:10:45.611Z,31.30
2018-11-22T04:16:49.155Z,30.73
2018-11-22T04:22:52.674Z,32.17
2018-11-22T04:28:56.183Z,31.33
2018-11-22T04:34:59.734Z,31.90
2018-11-22T04:41:03.211Z,32.20
2018-11-22T04:47:06.701Z,31.83
2018-11-22T04:53:10.193Z,32.33
2018-11-22T04:59:13.698Z,33.90
2018-11-22T05:05:21.313Z,33.43
2018-11-22T05:11:24.782Z,32.50
2018-11-22T05:17:28.280Z,33.13
2018-11-22T05:23:31.787Z,32.50
2018-11-22T05:29:35.236Z,32.23
2018-11-22T05:35:38.714Z,32.03
2018-11-22T05:41:43.927Z,32.93
2018-11-22T05:47:45.654Z,32.17
2018-11-22T05:53:49.148Z,32.87
2018-11-22T05:59:52.605Z,33.87
2018-11-22T06:05:56.084Z,34.53
2018-11-22T06:11:59.590Z,32.03
2018-11-22T06:18:03.334Z,32.57
2018-11-22T06:24:06.835Z,32.87
2018-11-22T06:30:18.300Z,33.60
2018-11-22T12:17:47.656Z,39.23
2018-11-22T12:23:51.658Z,40.83
2018-11-22T12:29:55.134Z,42.87
2018-11-22T12:36:03.835Z,41.83
2018-11-22T12:42:07.370Z,39.87
2018-11-22T12:48:10.862Z,42.00
2018-11-22T12:54:14.368Z,41.50
2018-11-22T13:00:18.300Z,41.07
2018-11-22T13:06:21.752Z,40.63
2018-11-22T13:12:25.236Z,40.87
2018-11-22T13:18:28.674Z,40.17
2018-11-22T13:24:32.114Z,40.57
2018-11-22T13:30:35.581Z,39.97
2018-11-22T13:36:39.012Z,44.77
2018-11-22T13:42:43.328Z,40.57
2018-11-22T13:48:46.854Z,38.67
2018-11-22T13:54:50.308Z,40.20
2018-11-22T14:00:53.792Z,37.67
2018-11-22T14:06:57.293Z,38.17
2018-11-22T14:13:00.758Z,36.77
2018-11-22T14:19:04.246Z,39.37
2018-11-22T14:25:08.642Z,37.60
2018-11-22T14:31:18.865Z,39.13
2018-11-22T14:37:22.988Z,39.97
2018-11-22T14:43:26.496Z,40.97
2018-11-22T14:49:30.005Z,39.10
2018-11-22T14:55:33.440Z,41.40
2018-11-22T15:01:36.914Z,40.80
2018-11-22T15:07:41.172Z,40.20
2018-11-22T15:13:45.302Z,42.60
2018-11-22T15:19:48.744Z,45.77
2018-11-22T15:25:52.230Z,40.23
2018-11-22T15:31:55.687Z,39.07
2018-11-22T15:38:00.151Z,39.57
2018-11-22T15:44:03.965Z,39.17
2018-11-22T15:50:16.231Z,38.80
2018-11-22T15:56:19.765Z,39.43
2018-11-22T16:02:23.261Z,40.90
2018-11-22T16:08:26.719Z,40.00
2018-11-22T16:14:30.193Z,39.80
2018-11-22T16:20:33.660Z,37.97
2018-11-22T16:26:37.098Z,37.83
2018-11-22T16:32:40.792Z,37.47
2018-11-22T16:38:44.280Z,45.83
2018-11-22T16:44:47.895Z,36.77
2018-11-22T16:50:51.533Z,38.40
2018-11-22T16:56:54.954Z,39.47
2018-11-22T17:02:59.859Z,37.90
2018-11-22T17:09:05.051Z,36.90
2018-11-22T17:15:11.149Z,38.53
2018-11-22T17:21:14.735Z,40.90
2018-11-22T17:27:18.216Z,39.10
2018-11-22T17:33:21.661Z,39.10
2018-11-22T17:39:28.103Z,39.17
2018-11-22T17:45:30.891Z,40.53
2018-11-22T17:51:34.387Z,41.80
2018-11-22T17:57:37.891Z,42.33
2018-11-22T18:03:41.344Z,41.50
2018-11-22T18:09:44.824Z,40.53
2018-11-22T18:15:53.681Z,38.63
2018-11-22T18:21:57.252Z,37.03
2018-11-22T18:28:00.861Z,38.57
2018-11-22T18:34:04.335Z,36.80
2018-11-22T18:40:11.142Z,39.40
2018-11-22T18:46:14.684Z,38.73
2018-11-22T18:52:18.184Z,37.13
2018-11-22T18:58:21.644Z,36.40
2018-11-22T19:04:25.155Z,36.03
2018-11-22T19:10:30.221Z,37.27
2018-11-22T19:16:33.687Z,37.30
2018-11-22T19:22:37.182Z,41.43
2018-11-22T19:28:40.674Z,43.00
2018-11-22T19:34:44.173Z,45.80
2018-11-22T19:40:47.744Z,43.53
2018-11-22T19:46:51.283Z,40.27
2018-11-22T19:52:55.387Z,36.60
2018-11-22T19:58:58.808Z,36.30
2018-11-22T20:05:02.379Z,37.03
2018-11-22T20:11:06.411Z,35.87
2018-11-22T20:17:09.863Z,36.90
2018-11-22T20:23:13.396Z,36.80
2018-11-22T20:29:16.886Z,35.73
2018-11-22T20:35:20.949Z,36.27
2018-11-22T20:41:24.795Z,36.70
2018-11-22T20:47:28.227Z,35.67
2018-11-22T20:53:31.657Z,36.83
2018-11-22T20:59:35.099Z,34.87
2018-11-22T21:05:38.556Z,35.10
2018-11-22T21:11:43.557Z,37.70
2018-11-22T21:17:46.412Z,37.37
2018-11-22T21:23:49.895Z,36.83
2018-11-22T21:29:53.336Z,37.13
2018-11-22T21:35:56.838Z,37.03
2018-11-22T21:42:00.274Z,35.40
2018-11-22T21:48:03.754Z,36.23
2018-11-22T21:54:07.251Z,36.07
2018-11-22T22:00:22.005Z,39.13
2018-11-22T22:06:25.440Z,36.93
2018-11-22T22:12:29.011Z,36.77
2018-11-22T22:18:32.472Z,40.03
2018-11-22T22:24:35.916Z,38.73
2018-11-22T22:30:39.367Z,39.83
2018-11-22T22:36:42.823Z,37.83
2018-11-22T22:42:47.368Z,43.20
2018-11-22T22:48:50.838Z,36.67
2018-11-22T22:54:54.330Z,37.53
2018-11-22T23:01:01.206Z,38.70
2018-11-22T23:07:04.646Z,38.13
2018-11-22T23:13:08.325Z,38.77
2018-11-22T23:19:11.843Z,37.90
2018-11-22T23:25:15.885Z,37.03
2018-11-22T23:31:19.346Z,36.83
2018-11-22T23:37:23.126Z,39.10
2018-11-22T23:43:26.597Z,46.33
2018-11-22T23:49:30.058Z,40.37
2018-11-22T23:55:33.559Z,36.97
